Time;durP1;ratioP1;P1;durP2;ratioP2;P2;SDS_P1;SDS_P2;PMS_P1;PMS_P2;Temp;Humidity;BMP_temperature;BMP_pressure;BME280_temperature;BME280_humidity;BME280_pressure;Samples;Min_cycle;Max_cycle;Signal;HPM_P1;HPM_P2
2021/06/18 00:00:39;;;;;;;5.10;1.20;;;;;;;24.93;40.50;99973.34;1697373;83;21006;-43
2021/06/18 00:03:05;;;;;;;5.58;1.07;;;;;;;24.91;40.15;99974.45;1739686;81;21528;-42
2021/06/18 00:05:33;;;;;;;4.67;1.12;;;;;;;24.81;40.16;99973.92;1700590;83;21082;-43
2021/06/18 00:08:00;;;;;;;5.78;1.35;;;;;;;24.74;40.45;99974.58;1672667;84;21436;-43
2021/06/18 00:10:26;;;;;;;1.85;1.15;;;;;;;24.71;40.41;99964.08;1693677;84;21512;-42
2021/06/18 00:12:55;;;;;;;3.00;0.90;;;;;;;24.71;40.22;99969.45;1693929;84;21034;-43
2021/06/18 00:15:23;;;;;;;1.47;0.85;;;;;;;24.68;40.43;99963.86;1721452;81;21818;-42
2021/06/18 00:17:51;;;;;;;4.12;0.93;;;;;;;24.68;40.20;99965.20;1694634;83;21062;-41
2021/06/18 00:20:19;;;;;;;6.12;1.15;;;;;;;24.65;40.12;99958.74;1724519;83;21086;-42
2021/06/18 00:22:46;;;;;;;4.47;1.10;;;;;;;24.59;40.18;99964.64;1735296;81;21078;-43
2021/06/18 00:25:13;;;;;;;4.85;0.90;;;;;;;24.54;40.47;99968.19;1725074;81;21461;-41
2021/06/18 00:27:40;;;;;;;2.83;1.02;;;;;;;24.55;40.40;99965.91;1752127;80;21635;-43
2021/06/18 00:30:09;;;;;;;3.00;1.22;;;;;;;24.53;40.24;99961.09;1711619;81;21095;-41
2021/06/18 00:32:35;;;;;;;2.15;1.00;;;;;;;24.45;40.28;99966.65;1700087;81;21539;-42
2021/06/18 00:35:02;;;;;;;1.62;0.90;;;;;;;24.33;40.50;99965.02;1722841;83;21513;-42
2021/06/18 00:37:28;;;;;;;3.55;1.00;;;;;;;24.25;40.65;99964.31;1721438;81;21147;-42
2021/06/18 00:39:56;;;;;;;1.35;0.90;;;;;;;24.19;40.81;99981.45;1705912;82;22192;-42
2021/06/18 00:42:23;;;;;;;5.12;1.02;;;;;;;24.14;40.97;99985.02;1742711;81;20979;-42
2021/06/18 00:44:51;;;;;;;3.58;1.00;;;;;;;24.11;40.92;99984.30;1703560;81;21050;-44
2021/06/18 00:47:21;;;;;;;4.33;1.10;;;;;;;24.08;41.06;99986.41;1695130;83;21054;-41
2021/06/18 00:49:48;;;;;;;1.82;0.98;;;;;;;24.02;41.27;99978.34;1697921;83;21946;-43
2021/06/18 00:52:16;;;;;;;1.95;1.20;;;;;;;24.03;41.42;99974.68;1720901;81;23221;-42
2021/06/18 00:54:44;;;;;;;4.55;1.00;;;;;;;24.06;41.43;99970.40;1679874;82;21105;-42
2021/06/18 00:57:10;;;;;;;1.98;0.93;;;;;;;24.09;41.53;99967.92;1689483;82;21452;-42
2021/06/18 00:59:38;;;;;;;2.15;1.10;;;;;;;24.14;41.42;99964.39;1721898;81;21023;-42
2021/06/18 01:02:05;;;;;;;5.35;1.10;;;;;;;24.13;41.41;99957.80;1740455;81;21108;-42
2021/06/18 01:04:32;;;;;;;3.40;1.10;;;;;;;24.09;41.51;99960.73;1704669;82;21137;-42
2021/06/18 01:07:17;;;;;;;5.12;1.15;;;;;;;23.99;41.71;99959.81;1725580;81;21061;-42
2021/06/18 01:10:08;;;;;;;;;;;;;;;24.01;41.70;99966.40;1687489;83;21637;-42
2021/06/18 01:13:04;;;;;;;3.35;1.27;;;;;;;24.00;41.71;99968.22;1679937;83;20964;-42
2021/06/18 01:16:02;;;;;;;1.92;1.37;;;;;;;23.97;41.63;99961.75;1700511;83;21066;-43
2021/06/18 01:18:41;;;;;;;1.32;1.22;;;;;;;23.93;41.74;99968.38;1720629;81;21157;-43
2021/06/18 01:21:22;;;;;;;2.47;1.30;;;;;;;23.94;41.91;99971.44;1676607;83;21053;-40
2021/06/18 01:24:02;;;;;;;3.58;1.20;;;;;;;24.04;41.82;99962.96;1704254;82;21049;-40
2021/06/18 01:26:58;;;;;;;2.87;1.05;;;;;;;24.15;41.54;99955.83;1714802;81;21054;-43
2021/06/18 01:29:25;;;;;;;2.30;1.10;;;;;;;24.11;41.47;99952.55;1727049;81;21090;-43
2021/06/18 01:31:52;;;;;;;2.58;1.20;;;;;;;24.12;41.53;99951.55;1727294;81;22017;-40
2021/06/18 01:34:24;;;;;;;1.10;0.95;;;;;;;24.20;41.52;99948.22;1693884;83;21608;-41
2021/06/18 01:36:53;;;;;;;2.40;1.00;;;;;;;24.28;41.24;99949.77;1705939;82;21046;-43
2021/06/18 01:39:20;;;;;;;1.22;0.90;;;;;;;24.30;41.22;99943.76;1725995;82;21065;-40
2021/06/18 01:41:47;;;;;;;1.90;1.25;;;;;;;24.33;41.11;99937.28;1704953;82;20993;-43
2021/06/18 01:44:14;;;;;;;2.25;1.22;;;;;;;24.31;41.01;99936.06;1675901;83;21188;-40
2021/06/18 01:46:41;;;;;;;3.70;1.07;;;;;;;24.27;41.10;99938.64;1652104;84;21098;-40
2021/06/18 01:49:11;;;;;;;5.67;1.20;;;;;;;24.29;41.03;99937.54;1716317;81;21113;-39
2021/06/18 01:51:39;;;;;;;4.22;1.27;;;;;;;24.16;41.10;99933.31;1705496;82;21033;-39
2021/06/18 01:54:07;;;;;;;2.40;1.10;;;;;;;23.85;41.31;99946.16;1723059;81;21476;-39
2021/06/18 01:56:36;;;;;;;4.00;1.10;;;;;;;23.53;42.18;99944.77;1655041;82;21156;-40
2021/06/18 01:59:03;;;;;;;3.17;1.02;;;;;;;23.36;42.53;99942.97;1696522;83;21064;-40
2021/06/18 02:01:42;;;;;;;6.22;1.32;;;;;;;23.20;42.59;99927.77;1700294;82;21053;-40
2021/06/18 02:04:08;;;;;;;1.50;1.00;;;;;;;23.05;42.95;99934.30;1704063;82;22125;-39
2021/06/18 02:06:36;;;;;;;2.35;1.00;;;;;;;22.92;43.49;99936.64;1653934;84;21505;-39
2021/06/18 02:09:05;;;;;;;1.35;0.98;;;;;;;22.86;43.61;99937.61;1659845;84;21070;-41
2021/06/18 02:11:33;;;;;;;1.55;1.12;;;;;;;22.83;44.04;99936.05;1697852;83;21584;-41
2021/06/18 02:14:04;;;;;;;5.00;1.20;;;;;;;22.94;44.10;99940.55;1652532;84;22071;-42
2021/06/18 02:16:32;;;;;;;1.87;1.10;;;;;;;23.15;43.84;99933.99;1746650;81;21050;-41
2021/06/18 02:18:59;;;;;;;3.22;1.32;;;;;;;23.37;43.17;99937.97;1721701;81;21053;-41
2021/06/18 02:21:26;;;;;;;3.10;1.07;;;;;;;23.50;42.70;99931.12;1722738;82;21490;-41
2021/06/18 02:23:53;;;;;;;2.45;0.98;;;;;;;23.52;42.59;99935.02;1728792;81;21015;-41
2021/06/18 02:26:23;;;;;;;1.52;1.10;;;;;;;23.60;42.52;99937.91;1728431;81;21080;-40
2021/06/18 02:28:49;;;;;;;3.27;1.15;;;;;;;23.76;42.43;99934.81;1728545;81;21039;-40
2021/06/18 02:31:16;;;;;;;5.05;1.10;;;;;;;23.90;41.95;99945.78;1681962;83;21049;-41
2021/06/18 02:33:43;;;;;;;5.95;1.10;;;;;;;24.01;41.97;99943.55;1756356;81;22756;-41
2021/06/18 02:36:10;;;;;;;5.25;1.62;;;;;;;24.20;41.58;99937.47;1731268;81;21078;-41
2021/06/18 02:38:36;;;;;;;4.37;1.10;;;;;;;24.37;40.89;99938.71;1740063;81;21113;-39
2021/06/18 02:41:03;;;;;;;5.28;1.15;;;;;;;24.54;40.82;99943.98;1753538;81;21070;-40
2021/06/18 02:43:29;;;;;;;1.90;0.80;;;;;;;24.86;40.54;99946.58;1697655;83;21070;-42
2021/06/18 02:45:56;;;;;;;3.65;1.05;;;;;;;25.27;39.71;99942.58;1718201;82;21094;-42
2021/06/18 02:48:31;;;;;;;3.05;1.10;;;;;;;25.65;39.00;99946.36;1682805;83;21999;-42
2021/06/18 02:51:13;;;;;;;2.17;1.12;;;;;;;26.01;38.35;99945.34;1710282;82;21021;-40
2021/06/18 02:53:51;;;;;;;1.02;0.90;;;;;;;26.40;37.75;99953.42;1689351;83;21625;-41
2021/06/18 02:56:33;;;;;;;3.25;0.78;;;;;;;26.70;36.99;99949.69;1691310;82;21065;-41
2021/06/18 02:59:04;;;;;;;0.98;0.75;;;;;;;27.02;36.52;99956.03;1696859;83;21554;-41
2021/06/18 03:01:35;;;;;;;2.27;1.00;;;;;;;27.38;35.90;99958.02;1700463;83;21187;-41
2021/06/18 03:04:03;;;;;;;2.90;0.85;;;;;;;27.71;35.31;99961.94;1698807;82;21068;-41
2021/06/18 03:06:35;;;;;;;2.92;0.90;;;;;;;28.04;34.80;99964.13;1723444;82;21033;-39
2021/06/18 03:09:05;;;;;;;1.62;1.00;;;;;;;28.27;33.91;99969.92;1688480;83;21436;-38
2021/06/18 03:11:40;;;;;;;4.33;0.93;;;;;;;28.46;33.51;99961.63;1729898;81;21214;-37
2021/06/18 03:14:09;;;;;;;4.45;1.02;;;;;;;28.67;33.12;99960.44;1731812;81;21156;-40
2021/06/18 03:16:37;;;;;;;7.37;1.20;;;;;;;28.90;32.56;99960.23;1686566;83;21043;-42
2021/06/18 03:19:06;;;;;;;1.42;1.30;;;;;;;29.10;32.34;99955.91;1686215;83;21026;-39
2021/06/18 03:21:35;;;;;;;3.98;1.00;;;;;;;29.28;31.96;99959.41;1640871;84;21420;-39
2021/06/18 03:24:04;;;;;;;2.20;0.80;;;;;;;29.46;31.55;99953.88;1735405;81;22256;-42
2021/06/18 03:26:30;;;;;;;4.37;1.02;;;;;;;29.68;31.33;99956.16;1710783;81;20981;-39
2021/06/18 03:28:57;;;;;;;2.87;0.80;;;;;;;29.90;30.86;99954.69;1704624;81;21374;-39
2021/06/18 03:31:26;;;;;;;2.83;0.90;;;;;;;30.09;30.61;99948.08;1678848;82;21018;-39
2021/06/18 03:33:53;;;;;;;2.25;0.68;;;;;;;30.27;30.34;99954.70;1682506;84;21123;-40
2021/06/18 03:36:25;;;;;;;2.17;1.07;;;;;;;30.53;30.06;99953.16;1703548;82;21096;-40
2021/06/18 03:38:55;;;;;;;3.00;0.90;;;;;;;30.83;29.64;99957.53;1691992;83;21484;-38
2021/06/18 03:41:23;;;;;;;4.72;0.98;;;;;;;31.09;29.19;99953.24;1694402;83;21106;-39
2021/06/18 03:43:51;;;;;;;3.37;0.93;;;;;;;31.34;28.83;99958.06;1737307;81;21096;-40
2021/06/18 03:46:18;;;;;;;5.03;0.70;;;;;;;31.55;28.51;99957.97;1714679;81;21050;-41
2021/06/18 03:48:45;;;;;;;1.65;0.75;;;;;;;31.78;28.22;99960.20;1698988;81;21066;-41
2021/06/18 03:51:12;;;;;;;2.17;0.90;;;;;;;32.02;27.82;99955.09;1726866;81;21106;-41
2021/06/18 03:53:40;;;;;;;5.53;1.05;;;;;;;32.19;27.55;99964.52;1689394;83;21518;-39
2021/06/18 03:56:07;;;;;;;3.17;0.80;;;;;;;32.35;27.39;99964.91;1717211;82;21931;-41
2021/06/18 03:58:33;;;;;;;2.87;0.62;;;;;;;32.52;26.95;99958.80;1703960;82;21002;-42
2021/06/18 04:01:01;;;;;;;2.70;1.00;;;;;;;32.66;26.80;99955.78;1699723;83;21197;-42
2021/06/18 04:03:28;;;;;;;3.15;0.70;;;;;;;32.75;26.68;99964.19;1712478;83;20970;-41
2021/06/18 04:06:02;;;;;;;3.17;1.07;;;;;;;32.84;26.57;99961.72;1671617;84;21105;-40
2021/06/18 04:08:29;;;;;;;2.35;0.72;;;;;;;33.03;26.42;99954.01;1717591;82;21042;-40
2021/06/18 04:10:56;;;;;;;2.58;0.70;;;;;;;33.18;26.02;99962.21;1687818;83;21098;-42
2021/06/18 04:13:24;;;;;;;2.75;0.80;;;;;;;33.27;26.00;99965.14;1738893;81;21022;-40
2021/06/18 04:15:52;;;;;;;3.52;0.78;;;;;;;33.33;25.74;99962.50;1700150;83;21027;-40
2021/06/18 04:18:20;;;;;;;2.25;0.80;;;;;;;33.38;25.72;99970.65;1704091;82;21145;-39
2021/06/18 04:20:50;;;;;;;7.30;1.00;;;;;;;33.42;25.60;99968.72;1694034;83;21691;-39
2021/06/18 04:23:24;;;;;;;3.55;0.60;;;;;;;33.47;25.59;99966.76;1717027;82;21105;-38
2021/06/18 04:25:48;;;;;;;3.60;1.07;;;;;;;33.54;25.47;99970.44;1715823;82;21124;-38
2021/06/18 04:28:15;;;;;;;1.02;0.62;;;;;;;33.59;25.46;99974.80;1694120;82;21080;-37
2021/06/18 04:30:41;;;;;;;4.47;0.80;;;;;;;33.64;25.33;99975.06;1699173;82;21068;-39
2021/06/18 04:33:09;;;;;;;4.70;0.85;;;;;;;33.58;25.31;99969.52;1695399;83;21050;-38
2021/06/18 04:35:36;;;;;;;2.80;0.80;;;;;;;33.43;25.48;99968.19;1713517;82;21586;-39
2021/06/18 04:38:03;;;;;;;2.40;0.60;;;;;;;33.07;25.82;99959.40;1707919;82;21130;-39
2021/06/18 04:40:30;;;;;;;2.35;0.82;;;;;;;32.67;26.26;99968.39;1697929;82;21102;-38
2021/06/18 04:42:56;;;;;;;4.90;0.80;;;;;;;32.20;26.76;99967.06;1704652;82;21595;-38
2021/06/18 04:45:24;;;;;;;3.40;0.90;;;;;;;31.63;27.48;99969.64;1710545;82;21037;-42
2021/06/18 04:47:50;;;;;;;3.60;0.78;;;;;;;31.15;28.34;99964.75;1745135;81;21099;-40
2021/06/18 04:50:17;;;;;;;6.35;0.90;;;;;;;30.88;28.89;99967.36;1736765;81;21220;-41
2021/06/18 04:52:46;;;;;;;1.95;1.00;;;;;;;30.70;29.32;99970.31;1728058;82;21094;-39
2021/06/18 04:55:18;;;;;;;4.22;0.75;;;;;;;30.58;29.62;99976.61;1716858;82;21042;-39
2021/06/18 04:57:46;;;;;;;5.03;0.98;;;;;;;30.45;29.82;99979.84;1680719;83;21126;-36
2021/06/18 05:00:15;;;;;;;3.27;1.07;;;;;;;30.31;30.11;99983.19;1705904;82;21072;-37
2021/06/18 05:02:43;;;;;;;5.95;3.80;;;;;;;30.18;30.23;99982.36;1696248;82;21108;-37
2021/06/18 05:05:12;;;;;;;18.17;11.88;;;;;;;29.98;30.49;99980.48;1735729;82;21535;-38
2021/06/18 05:07:39;;;;;;;11.10;6.80;;;;;;;29.78;30.92;99977.22;1707782;83;21051;-38
2021/06/18 05:10:09;;;;;;;6.37;4.87;;;;;;;29.65;31.19;99979.02;1723105;82;21581;-39
2021/06/18 05:12:36;;;;;;;3.35;3.05;;;;;;;29.53;31.37;99977.12;1739456;81;21078;-39
2021/06/18 05:15:05;;;;;;;6.53;2.77;;;;;;;29.39;31.69;99973.70;1719266;82;21499;-37
2021/06/18 05:17:32;;;;;;;13.68;2.58;;;;;;;29.26;31.89;99968.73;1722787;82;21053;-38
2021/06/18 05:19:58;;;;;;;3.30;1.70;;;;;;;29.18;32.06;99969.53;1692792;83;21006;-37
2021/06/18 05:22:25;;;;;;;3.72;1.60;;;;;;;29.11;32.25;99958.97;1748573;81;21853;-37
2021/06/18 05:24:51;;;;;;;4.58;1.52;;;;;;;29.00;32.49;99952.00;1745673;81;21070;-36
2021/06/18 05:27:18;;;;;;;2.65;1.10;;;;;;;28.95;32.72;99949.41;1745103;81;21776;-37
2021/06/18 05:29:44;;;;;;;4.85;1.27;;;;;;;28.90;32.81;99941.79;1752151;81;21049;-38
2021/06/18 05:32:11;;;;;;;1.77;1.00;;;;;;;28.80;32.94;99948.67;1751421;81;21528;-37
2021/06/18 05:34:38;;;;;;;3.42;1.00;;;;;;;28.70;33.19;99950.64;1728016;81;20991;-37
2021/06/18 05:37:06;;;;;;;3.95;0.90;;;;;;;28.64;33.28;99949.41;1746420;81;21093;-37
2021/06/18 05:39:33;;;;;;;7.65;1.10;;;;;;;28.61;33.53;99955.65;1704805;82;21549;-44
2021/06/18 05:42:01;;;;;;;1.67;0.93;;;;;;;28.54;33.66;99954.89;1693009;83;21063;-38
2021/06/18 05:44:29;;;;;;;6.05;1.00;;;;;;;28.52;33.77;99958.78;1728918;81;20979;-40
2021/06/18 05:46:56;;;;;;;3.50;0.95;;;;;;;28.48;33.84;99956.89;1703857;83;21077;-37
2021/06/18 05:49:22;;;;;;;6.30;1.50;;;;;;;28.47;33.97;99955.70;1736100;81;22071;-37
2021/06/18 05:51:49;;;;;;;2.83;0.93;;;;;;;28.45;34.01;99958.56;1730423;81;21121;-40
2021/06/18 05:54:16;;;;;;;2.60;0.80;;;;;;;28.41;33.91;99954.48;1709774;82;21042;-39
2021/06/18 05:56:43;;;;;;;2.30;1.07;;;;;;;28.40;34.05;99949.23;1737599;81;21153;-40
2021/06/18 05:59:10;;;;;;;2.08;0.72;;;;;;;28.40;34.19;99954.13;1729823;81;21077;-37
2021/06/18 06:01:37;;;;;;;4.97;1.10;;;;;;;28.41;34.22;99955.84;1727819;81;21122;-40
2021/06/18 06:04:04;;;;;;;4.40;1.07;;;;;;;28.39;34.40;99952.41;1720480;81;21149;-38
2021/06/18 06:06:31;;;;;;;3.37;0.72;;;;;;;28.35;34.59;99957.81;1722029;81;21062;-39
2021/06/18 06:08:58;;;;;;;7.10;0.95;;;;;;;28.37;34.75;99962.55;1722093;82;21094;-36
2021/06/18 06:11:25;;;;;;;5.33;1.10;;;;;;;28.37;34.68;99964.42;1723460;82;21528;-38
2021/06/18 06:14:04;;;;;;;5.92;1.20;;;;;;;28.34;34.78;99956.97;1729737;81;21055;-40
2021/06/18 06:16:34;;;;;;;3.80;0.85;;;;;;;28.33;34.88;99959.83;1729911;81;21042;-36
2021/06/18 06:19:02;;;;;;;5.47;0.90;;;;;;;28.32;34.89;99954.06;1686820;83;21009;-39
2021/06/18 06:21:28;;;;;;;36.50;22.20;;;;;;;28.29;34.96;99955.72;1695592;82;21425;-36
2021/06/18 06:23:55;;;;;;;6.15;3.12;;;;;;;28.25;35.28;99962.47;1726608;81;21080;-37
2021/06/18 06:26:23;;;;;;;5.53;1.85;;;;;;;28.20;35.27;99950.75;1704532;82;36960;-38
2021/06/18 06:28:49;;;;;;;1.95;1.12;;;;;;;28.14;35.36;99968.47;1720446;81;21145;-38
2021/06/18 06:31:16;;;;;;;5.30;1.10;;;;;;;28.09;35.41;99965.39;1728473;81;20982;-38
2021/06/18 06:33:44;;;;;;;8.23;1.52;;;;;;;28.03;35.78;99961.94;1721302;82;21085;-38
2021/06/18 06:36:10;;;;;;;3.92;1.20;;;;;;;27.96;35.84;99962.22;1720884;81;21582;-35
2021/06/18 06:38:38;;;;;;;2.15;1.00;;;;;;;27.90;36.01;99954.69;1720929;82;21058;-35
2021/06/18 06:41:05;;;;;;;7.55;1.02;;;;;;;27.84;36.21;99945.83;1720321;82;21112;-35
2021/06/18 06:43:32;;;;;;;4.47;1.10;;;;;;;27.80;36.45;99950.19;1720743;81;21004;-36
2021/06/18 06:46:01;;;;;;;5.05;1.15;;;;;;;27.74;36.69;99952.66;1697557;82;20982;-37
2021/06/18 06:48:27;;;;;;;5.72;1.35;;;;;;;27.72;36.67;99970.41;1720622;81;21466;-38
2021/06/18 06:50:54;;;;;;;3.58;1.35;;;;;;;27.71;36.60;99952.48;1721216;81;21012;-37
2021/06/18 06:53:21;;;;;;;2.85;1.00;;;;;;;27.71;36.72;99955.69;1720268;81;21127;-37
2021/06/18 06:55:47;;;;;;;3.02;1.00;;;;;;;27.70;36.94;99959.39;1706514;81;21026;-38
2021/06/18 06:58:14;;;;;;;5.50;0.93;;;;;;;27.74;36.96;99957.58;1721044;81;21030;-35
2021/06/18 07:00:40;;;;;;;2.45;0.88;;;;;;;27.79;36.88;99953.91;1706919;81;22271;-38
2021/06/18 07:03:07;;;;;;;4.30;1.00;;;;;;;27.90;36.77;99952.82;1692103;82;21519;-37
2021/06/18 07:05:33;;;;;;;2.60;1.10;;;;;;;28.01;36.61;99946.38;1719182;81;21840;-39
2021/06/18 07:08:21;;;;;;;1.42;0.80;;;;;;;28.12;36.50;99954.23;1723707;81;21085;-39
2021/06/18 07:10:48;;;;;;;2.25;0.82;;;;;;;28.22;36.42;99943.33;1729218;81;20994;-36
2021/06/18 07:13:14;;;;;;;2.08;0.90;;;;;;;28.32;36.30;99935.13;1719797;82;20971;-38
2021/06/18 07:15:41;;;;;;;2.65;0.98;;;;;;;28.42;36.28;99935.86;1689331;83;21014;-38
2021/06/18 07:18:08;;;;;;;1.98;0.93;;;;;;;28.51;36.19;99932.22;1729051;81;21176;-38
2021/06/18 07:20:34;;;;;;;4.22;1.10;;;;;;;28.59;36.14;99937.37;1719750;81;21042;-41
2021/06/18 07:23:01;;;;;;;4.17;1.10;;;;;;;28.68;36.08;99929.62;1720515;81;21879;-38
2021/06/18 07:25:27;;;;;;;4.17;0.88;;;;;;;28.75;35.99;99922.58;1695671;82;21027;-38
2021/06/18 07:27:54;;;;;;;2.62;1.07;;;;;;;28.81;35.93;99924.63;1666509;83;21073;-36
2021/06/18 07:30:23;;;;;;;9.70;1.70;;;;;;;28.88;35.90;99928.89;1705465;82;22397;-37
2021/06/18 07:32:51;;;;;;;22.15;13.88;;;;;;;28.93;35.60;99933.83;1706685;83;21125;-40
2021/06/18 07:35:18;;;;;;;4.42;4.03;;;;;;;28.90;35.35;99935.02;1736428;81;21113;-36
2021/06/18 07:37:45;;;;;;;7.55;2.95;;;;;;;28.85;35.41;99923.79;1703168;81;21103;-37
2021/06/18 07:40:15;;;;;;;4.33;1.90;;;;;;;28.82;35.55;99918.20;1720420;81;21512;-37
2021/06/18 07:42:42;;;;;;;3.50;1.60;;;;;;;28.80;35.69;99927.01;1694513;83;21753;-38
2021/06/18 07:45:10;;;;;;;2.87;1.30;;;;;;;28.79;35.82;99930.71;1719466;81;21612;-36
2021/06/18 07:47:39;;;;;;;8.90;1.27;;;;;;;28.79;35.76;99933.94;1699680;83;21604;-37
2021/06/18 07:50:13;;;;;;;2.60;0.93;;;;;;;28.75;35.63;99930.70;1689688;82;21069;-38
2021/06/18 07:52:39;;;;;;;8.93;1.10;;;;;;;28.75;35.60;99932.54;1702494;81;21077;-36
2021/06/18 07:55:10;;;;;;;4.17;0.93;;;;;;;28.74;35.78;99941.18;1717148;81;21235;-36
2021/06/18 07:57:36;;;;;;;7.83;1.05;;;;;;;28.72;35.86;99954.03;1711679;83;21109;-36
2021/06/18 08:00:08;;;;;;;8.73;2.02;;;;;;;28.71;35.84;99953.67;1743337;81;21015;-39
2021/06/18 08:02:37;;;;;;;6.08;1.10;;;;;;;28.70;35.80;99952.00;1714934;83;21132;-36
2021/06/18 08:05:09;;;;;;;3.42;0.98;;;;;;;28.70;35.78;99946.59;1716728;83;21077;-35
2021/06/18 08:07:36;;;;;;;2.83;1.25;;;;;;;28.72;35.83;99948.11;1738372;81;21160;-38
2021/06/18 08:10:04;;;;;;;3.70;1.67;;;;;;;28.77;35.94;99953.05;1723417;82;21455;-37
2021/06/18 08:12:31;;;;;;;3.77;0.95;;;;;;;28.85;36.12;99954.94;1714000;83;21065;-38
2021/06/18 08:14:58;;;;;;;4.60;1.17;;;;;;;28.90;35.97;99948.56;1744630;81;21022;-38
2021/06/18 08:17:25;;;;;;;5.90;1.45;;;;;;;28.95;36.09;99946.22;1722132;81;21611;-37
2021/06/18 08:19:52;;;;;;;4.42;1.15;;;;;;;29.02;36.15;99952.67;1729532;81;21913;-39
2021/06/18 08:22:18;;;;;;;3.80;1.45;;;;;;;29.08;36.16;99955.23;1715833;81;21046;-39
2021/06/18 08:24:45;;;;;;;2.65;1.10;;;;;;;29.12;36.18;99962.04;1749717;81;21074;-38
2021/06/18 08:27:12;;;;;;;5.05;1.50;;;;;;;29.18;36.18;99959.20;1726244;81;21070;-37
2021/06/18 08:29:39;;;;;;;6.10;1.32;;;;;;;29.21;36.22;99965.14;1690856;83;21092;-36
2021/06/18 08:32:07;;;;;;;4.83;1.50;;;;;;;29.27;36.24;99968.56;1693616;83;21142;-39
2021/06/18 08:34:33;;;;;;;4.97;1.55;;;;;;;29.32;36.29;99964.50;1720304;82;21846;-37
2021/06/18 08:37:00;;;;;;;5.45;1.50;;;;;;;29.37;36.26;99964.86;1709384;83;21556;-38
2021/06/18 08:39:27;;;;;;;8.10;2.00;;;;;;;29.41;36.37;99966.24;1745881;81;21038;-35
2021/06/18 08:41:53;;;;;;;9.05;2.60;;;;;;;29.43;36.26;99965.05;1749784;81;21078;-35
2021/06/18 08:44:20;;;;;;;4.65;1.98;;;;;;;29.45;36.21;99968.95;1720470;81;21234;-36
2021/06/18 08:46:48;;;;;;;11.40;1.60;;;;;;;29.44;36.02;99965.92;1744796;81;21034;-37
2021/06/18 08:49:14;;;;;;;5.45;1.35;;;;;;;29.40;36.17;99983.52;1728245;82;21054;-37
2021/06/18 08:51:41;;;;;;;4.42;1.30;;;;;;;29.32;36.16;99962.66;1728439;81;21054;-36
2021/06/18 08:54:08;;;;;;;13.70;1.50;;;;;;;29.28;36.18;99964.83;1695641;83;21066;-37
2021/06/18 08:56:34;;;;;;;4.03;1.22;;;;;;;29.28;36.29;99952.63;1702533;82;21013;-38
2021/06/18 08:59:01;;;;;;;10.32;1.42;;;;;;;29.31;36.42;99957.41;1728058;81;21149;-36
2021/06/18 09:01:28;;;;;;;5.00;1.00;;;;;;;29.30;36.60;99952.98;1734009;81;21650;-34
2021/06/18 09:03:55;;;;;;;3.20;1.02;;;;;;;29.31;36.59;99961.47;1724869;81;20971;-36
2021/06/18 09:06:34;;;;;;;5.17;1.05;;;;;;;29.31;36.63;99966.38;1693191;81;21844;-34
2021/06/18 09:09:20;;;;;;;6.83;1.42;;;;;;;29.32;36.61;99959.95;1668599;83;21819;-37
2021/06/18 09:11:53;;;;;;;2.55;1.00;;;;;;;29.35;36.79;99965.53;1682432;83;21117;-36
2021/06/18 09:14:27;;;;;;;4.47;1.10;;;;;;;29.37;36.87;99962.15;1743701;81;21044;-35
2021/06/18 09:17:17;;;;;;;;;;;;;;;29.39;36.83;99961.50;1730922;81;21078;-36
2021/06/18 09:19:53;;;;;;;11.50;1.40;;;;;;;29.41;36.57;99955.41;1738871;81;20193;-38
2021/06/18 09:22:38;;;;;;;9.70;1.92;;;;;;;29.40;36.84;99967.25;1709926;81;21166;-36
2021/06/18 09:25:12;;;;;;;8.30;1.85;;;;;;;29.39;36.68;99961.50;1704668;82;21052;-35
2021/06/18 09:27:44;;;;;;;;;;;;;;;29.35;36.55;99958.77;1679437;84;21068;-37
2021/06/18 09:30:32;;;;;;;8.53;1.60;;;;;;;29.27;36.68;99962.31;1705695;83;20177;-38
2021/06/18 09:33:12;;;;;;;6.90;1.20;;;;;;;29.24;36.65;99970.76;1697170;82;21030;-36
2021/06/18 09:35:51;;;;;;;5.47;1.10;;;;;;;29.25;36.69;99962.47;1697743;82;21089;-37
2021/06/18 09:38:17;;;;;;;3.80;1.10;;;;;;;29.26;36.57;99972.27;1687297;82;21074;-37
2021/06/18 09:40:45;;;;;;;13.08;1.60;;;;;;;29.22;36.53;99968.20;1652907;84;21197;-38
2021/06/18 09:43:15;;;;;;;5.37;1.00;;;;;;;29.21;36.65;99963.79;1697393;84;21070;-38
2021/06/18 09:45:41;;;;;;;9.18;1.30;;;;;;;29.17;36.41;99973.27;1709256;83;22186;-38
2021/06/18 09:48:16;;;;;;;5.08;1.25;;;;;;;29.05;36.79;99963.67;1708069;83;21497;-38
2021/06/18 09:50:47;;;;;;;5.28;1.22;;;;;;;29.02;37.00;99954.03;1647463;84;21057;-39
2021/06/18 09:53:22;;;;;;;7.12;1.25;;;;;;;29.05;37.09;99956.91;1672907;84;21671;-38
2021/06/18 09:56:10;;;;;;;8.80;1.15;;;;;;;29.05;37.01;99944.23;1647645;85;21081;-39
2021/06/18 09:58:41;;;;;;;2.83;0.93;;;;;;;29.03;36.87;99942.68;1639476;86;21101;-39
2021/06/18 10:01:22;;;;;;;4.03;0.90;;;;;;;29.04;36.99;99940.33;1703632;83;21521;-38
2021/06/18 10:04:12;;;;;;;6.42;1.02;;;;;;;29.10;36.95;99936.94;1703399;82;20998;-38
2021/06/18 10:06:42;;;;;;;12.80;1.42;;;;;;;29.10;36.85;99930.17;1681791;82;21906;-38
2021/06/18 10:09:16;;;;;;;3.95;1.10;;;;;;;29.08;37.35;99947.10;1714044;82;22024;-38
2021/06/18 10:11:45;;;;;;;11.03;2.15;;;;;;;29.04;37.04;99936.27;1716171;82;21613;-38
2021/06/18 10:14:14;;;;;;;3.17;1.32;;;;;;;28.97;37.34;99933.87;1697542;83;21218;-37
2021/06/18 10:16:42;;;;;;;5.95;1.00;;;;;;;28.96;37.37;99927.58;1698600;82;22257;-38
2021/06/18 10:19:09;;;;;;;4.55;1.15;;;;;;;29.01;37.44;99931.16;1706659;82;21111;-36
2021/06/18 10:21:52;;;;;;;10.50;1.02;;;;;;;29.03;37.43;99931.84;1720126;81;21042;-38
2021/06/18 10:24:19;;;;;;;4.97;1.05;;;;;;;29.07;37.34;99931.87;1727313;81;21101;-36
2021/06/18 10:26:50;;;;;;;3.47;1.00;;;;;;;29.13;37.19;99944.75;1727998;81;21231;-37
2021/06/18 10:29:38;;;;;;;3.12;1.20;;;;;;;29.07;37.42;99933.23;1682663;81;21050;-37
2021/06/18 10:32:29;;;;;;;6.50;0.90;;;;;;;28.99;37.45;99931.32;1732150;81;21051;-37
2021/06/18 10:34:57;;;;;;;3.00;1.20;;;;;;;28.98;37.73;99924.71;1732748;81;21594;-36
2021/06/18 10:37:26;;;;;;;8.25;1.15;;;;;;;28.96;37.94;99936.22;1750527;81;21517;-36
2021/06/18 10:39:57;;;;;;;5.92;1.15;;;;;;;28.95;38.23;99926.38;1746537;81;21584;-37
2021/06/18 10:42:24;;;;;;;10.50;1.35;;;;;;;29.00;37.93;99919.97;1746784;81;21423;-36
2021/06/18 10:44:52;;;;;;;7.80;1.52;;;;;;;29.03;38.09;99925.07;1715036;81;21109;-37
2021/06/18 10:47:31;;;;;;;9.18;1.17;;;;;;;29.03;38.00;99923.23;1723696;81;21034;-36
2021/06/18 10:49:59;;;;;;;12.23;1.30;;;;;;;29.05;38.11;99923.03;1695210;82;21005;-37
2021/06/18 10:52:38;;;;;;;8.08;1.80;;;;;;;29.09;37.99;99919.01;1719537;81;21623;-38
2021/06/18 10:55:05;;;;;;;10.88;1.45;;;;;;;29.11;37.96;99918.84;1721261;81;21012;-37
2021/06/18 10:57:32;;;;;;;4.85;1.02;;;;;;;29.17;37.99;99915.02;1721782;81;21026;-37
2021/06/18 11:00:22;;;;;;;10.88;1.30;;;;;;;29.22;37.79;99912.66;1721817;81;21901;-37
2021/06/18 11:02:49;;;;;;;7.08;1.20;;;;;;;29.24;37.76;99907.91;1697523;81;22265;-37
2021/06/18 11:05:25;;;;;;;4.37;1.32;;;;;;;29.32;38.04;99902.16;1731353;81;22206;-37
2021/06/18 11:08:16;;;;;;;7.97;1.30;;;;;;;29.38;38.21;99905.06;1690844;82;21020;-36
2021/06/18 11:10:43;;;;;;;3.67;0.80;;;;;;;29.44;38.35;99901.70;1698478;81;20998;-36
2021/06/18 11:13:10;;;;;;;4.17;1.37;;;;;;;29.50;38.43;99902.89;1745835;80;20987;-36
2021/06/18 11:15:41;;;;;;;2.17;0.88;;;;;;;29.55;38.48;99899.16;1693835;83;21121;-36
2021/06/18 11:18:18;;;;;;;3.22;1.00;;;;;;;29.59;38.53;99889.70;1726725;81;21024;-37
2021/06/18 11:20:53;;;;;;;4.42;1.20;;;;;;;29.63;38.63;99889.69;1722464;81;20982;-37
2021/06/18 11:23:25;;;;;;;8.53;1.72;;;;;;;29.70;38.72;99900.72;1723122;81;21000;-37
2021/06/18 11:25:57;;;;;;;2.67;0.70;;;;;;;29.77;38.76;99900.92;1732660;81;21617;-38
2021/06/18 11:28:34;;;;;;;4.33;1.00;;;;;;;29.81;38.82;99904.50;1722943;81;21399;-38
2021/06/18 11:31:08;;;;;;;3.92;0.93;;;;;;;29.87;38.84;99896.70;1692757;83;22426;-36
2021/06/18 11:33:46;;;;;;;3.65;1.07;;;;;;;29.92;38.92;99890.26;1692598;83;21645;-38
2021/06/18 11:36:22;;;;;;;1.77;0.85;;;;;;;29.99;38.96;99884.00;1689629;83;21021;-38
2021/06/18 11:39:05;;;;;;;4.65;1.45;;;;;;;30.05;39.01;99904.68;1723995;81;21561;-37
2021/06/18 11:41:42;;;;;;;4.87;0.93;;;;;;;30.11;39.05;99897.20;1723736;81;20982;-35
2021/06/18 11:44:11;;;;;;;3.42;1.30;;;;;;;30.17;39.08;99897.88;1723990;81;21580;-37
2021/06/18 11:46:38;;;;;;;4.83;1.27;;;;;;;30.21;39.08;99896.50;1723726;81;21026;-36